Cashmere, WA (98815)

10:03 AM PDT on March 31, 2015 (GMT -0700)
East Cashmere | | Change Station
CLOSE
Current Station
Personal Weather Station
Location: CASHMERE, WA
Elevation: 922 ft
Nearby Weather Stations

Elev 922 ft 47.52 °N, 120.44 °W | Updated 8 seconds ago

Clear
Clear
56.3 °F
Feels Like 56.3 °F
N
0.0
Wind Variable Wind from North
Gusts 0.0 mph

Today
High -- | Low -- °F
--% Chance of Precip.
Yesterday
High -- | Low -- °F
Precip. -- in
6:42 AM 7:30 PM
Waxing Gibbous, 87% visible
Pressure 29.87 in
Visibility 10.0 miles
Clouds Mostly Cloudy 6000 ft
Dew Point 30 °F
Humidity 37%
Rainfall 0.00 in
Snow Depth Not available.
UV 2 out of 12
Pollen 10.60 out of 12
Air Quality Not available.
Flu Activity Not available.
METAR KEAT 311655Z AUTO 29016KT 10SM BKN060 13/M03 A2987 RMK AO2 SLP113 T01281028

More Conditions Fewer Conditions

Pressure 29.87 in
Visibility 10.0 miles
Clouds Mostly Cloudy 6000 ft
Dew Point 30 °F
Humidity 37%
Rainfall 0.00 in
Snow Depth Not available.
UV 2 out of 12
Pollen 10.60 out of 12
Air Quality Not available.
Flu Activity Not available.
METAR KEAT 311655Z AUTO 29016KT 10SM BKN060 13/M03 A2987 RMK AO2 SLP113 T01281028

More Conditions Fewer Conditions

10-Day Weather Forecast

Almanac

Astronomy

Mar. 31, 2015 Rise Set
Actual Time
Civil Twilight
Nautical Twilight
Astronomical Twilight
Moon
Length of Visible Light
Length of Day
Tomorrow will be .
, % of the Moon is Illuminated

Today's Extremes

State Highs State Lows

Community

WunderPhotos

Upload Photos

1,809,787 photos uploaded!

WunderBlogs® & News

Nearby

Air Quality

  Air Quality AQ Index Pollutant
Not available.

Snow Depth

Station Depth Elevation

Earthquake Activity

City Distance Mag. Time & Date
Minimum magnitude displayed is 2.5.

Coastal Water Temperatures

Place Temperature

Stations

Nearby Weather Stations

Station Location Temp. Windchill Dew Point Humidity Wind Precip. Elev Updated Type